sensor_id;sensor_type;location;lat;lon;timestamp;temperature;humidity
15930;DHT22;8064;51.142;4.780;2022-10-31T00:00:21;14.60;99.90
15930;DHT22;8064;51.142;4.780;2022-10-31T00:02:46;14.60;99.90
15930;DHT22;8064;51.142;4.780;2022-10-31T00:05:12;14.60;99.90
15930;DHT22;8064;51.142;4.780;2022-10-31T00:07:38;14.60;99.90
15930;DHT22;8064;51.142;4.780;2022-10-31T00:10:04;14.50;99.90
15930;DHT22;8064;51.142;4.780;2022-10-31T00:12:30;14.50;99.90
15930;DHT22;8064;51.142;4.780;2022-10-31T00:14:55;14.50;99.90
15930;DHT22;8064;51.142;4.780;2022-10-31T00:17:21;14.50;99.90
15930;DHT22;8064;51.142;4.780;2022-10-31T00:19:47;14.50;99.90
15930;DHT22;8064;51.142;4.780;2022-10-31T00:22:13;14.50;99.90
15930;DHT22;8064;51.142;4.780;2022-10-31T00:24:39;14.50;99.90
15930;DHT22;8064;51.142;4.780;2022-10-31T00:27:05;14.50;99.90
15930;DHT22;8064;51.142;4.780;2022-10-31T00:29:31;14.50;99.90
15930;DHT22;8064;51.142;4.780;2022-10-31T00:31:56;14.50;99.90
15930;DHT22;8064;51.142;4.780;2022-10-31T00:34:22;14.50;99.90
15930;DHT22;8064;51.142;4.780;2022-10-31T00:36:48;14.50;99.90
15930;DHT22;8064;51.142;4.780;2022-10-31T00:39:13;14.50;99.90
15930;DHT22;8064;51.142;4.780;2022-10-31T00:41:39;14.50;99.90
15930;DHT22;8064;51.142;4.780;2022-10-31T00:44:05;14.50;99.90
15930;DHT22;8064;51.142;4.780;2022-10-31T00:46:30;14.40;99.90
15930;DHT22;8064;51.142;4.780;2022-10-31T00:48:56;14.40;99.90
15930;DHT22;8064;51.142;4.780;2022-10-31T00:51:22;14.40;99.90
15930;DHT22;8064;51.142;4.780;2022-10-31T00:53:47;14.40;99.90
15930;DHT22;8064;51.142;4.780;2022-10-31T00:56:13;14.40;99.90
15930;DHT22;8064;51.142;4.780;2022-10-31T00:58:39;14.30;99.90
15930;DHT22;8064;51.142;4.780;2022-10-31T01:01:04;14.30;99.90
15930;DHT22;8064;51.142;4.780;2022-10-31T01:03:32;14.30;99.90
15930;DHT22;8064;51.142;4.780;2022-10-31T01:06:01;14.20;99.90
15930;DHT22;8064;51.142;4.780;2022-10-31T01:08:28;14.20;99.90
15930;DHT22;8064;51.142;4.780;2022-10-31T01:11:01;14.20;99.90
15930;DHT22;8064;51.142;4.780;2022-10-31T01:13:27;14.20;99.90
15930;DHT22;8064;51.142;4.780;2022-10-31T01:15:57;14.10;99.90
15930;DHT22;8064;51.142;4.780;2022-10-31T01:18:23;14.10;99.90
15930;DHT22;8064;51.142;4.780;2022-10-31T01:21:01;14.10;99.90
15930;DHT22;8064;51.142;4.780;2022-10-31T01:23:28;14.10;99.90
15930;DHT22;8064;51.142;4.780;2022-10-31T01:28:38;14.00;99.90
15930;DHT22;8064;51.142;4.780;2022-10-31T01:31:06;14.00;99.90
15930;DHT22;8064;51.142;4.780;2022-10-31T01:33:32;14.00;99.90
15930;DHT22;8064;51.142;4.780;2022-10-31T01:35:58;14.00;99.90
15930;DHT22;8064;51.142;4.780;2022-10-31T01:38:24;13.90;99.90
15930;DHT22;8064;51.142;4.780;2022-10-31T01:40:50;13.90;99.90
15930;DHT22;8064;51.142;4.780;2022-10-31T01:43:16;13.90;99.90
15930;DHT22;8064;51.142;4.780;2022-10-31T01:45:46;13.80;99.90
15930;DHT22;8064;51.142;4.780;2022-10-31T01:48:17;13.80;99.90
15930;DHT22;8064;51.142;4.780;2022-10-31T01:50:46;13.70;99.90
15930;DHT22;8064;51.142;4.780;2022-10-31T01:53:15;13.70;99.90
15930;DHT22;8064;51.142;4.780;2022-10-31T01:55:44;13.60;99.90
15930;DHT22;8064;51.142;4.780;2022-10-31T01:58:16;13.60;99.90
15930;DHT22;8064;51.142;4.780;2022-10-31T02:00:46;13.60;99.90
15930;DHT22;8064;51.142;4.780;2022-10-31T02:03:12;13.50;99.90
15930;DHT22;8064;51.142;4.780;2022-10-31T02:05:38;13.50;99.90
15930;DHT22;8064;51.142;4.780;2022-10-31T02:08:09;13.50;99.90
15930;DHT22;8064;51.142;4.780;2022-10-31T02:10:38;13.50;99.90
15930;DHT22;8064;51.142;4.780;2022-10-31T02:13:06;13.40;99.90
15930;DHT22;8064;51.142;4.780;2022-10-31T02:15:33;13.40;99.90
15930;DHT22;8064;51.142;4.780;2022-10-31T02:18:00;13.40;99.90
15930;DHT22;8064;51.142;4.780;2022-10-31T02:21:15;13.40;99.90
15930;DHT22;8064;51.142;4.780;2022-10-31T02:29:05;13.30;99.90
15930;DHT22;8064;51.142;4.780;2022-10-31T02:31:46;13.20;99.90
15930;DHT22;8064;51.142;4.780;2022-10-31T02:34:21;13.20;99.90
15930;DHT22;8064;51.142;4.780;2022-10-31T02:36:57;13.20;99.90
15930;DHT22;8064;51.142;4.780;2022-10-31T02:42:13;13.10;99.90
15930;DHT22;8064;51.142;4.780;2022-10-31T02:47:28;13.00;99.90
15930;DHT22;8064;51.142;4.780;2022-10-31T02:50:04;13.00;99.90
15930;DHT22;8064;51.142;4.780;2022-10-31T02:52:33;13.00;99.90
15930;DHT22;8064;51.142;4.780;2022-10-31T02:55:11;12.90;99.90
15930;DHT22;8064;51.142;4.780;2022-10-31T02:57:37;12.90;99.90
15930;DHT22;8064;51.142;4.780;2022-10-31T03:00:07;12.90;99.90
15930;DHT22;8064;51.142;4.780;2022-10-31T03:05:31;12.90;99.90
15930;DHT22;8064;51.142;4.780;2022-10-31T03:10:44;12.90;99.90
15930;DHT22;8064;51.142;4.780;2022-10-31T03:13:52;12.90;99.90
15930;DHT22;8064;51.142;4.780;2022-10-31T03:16:26;12.90;99.90
15930;DHT22;8064;51.142;4.780;2022-10-31T03:21:46;12.90;99.90
15930;DHT22;8064;51.142;4.780;2022-10-31T03:24:13;12.90;99.90
15930;DHT22;8064;51.142;4.780;2022-10-31T03:26:47;12.90;99.90
15930;DHT22;8064;51.142;4.780;2022-10-31T03:29:16;12.90;99.90
15930;DHT22;8064;51.142;4.780;2022-10-31T03:31:55;13.00;99.90
15930;DHT22;8064;51.142;4.780;2022-10-31T03:34:22;12.90;99.90
15930;DHT22;8064;51.142;4.780;2022-10-31T03:36:50;12.90;99.90
15930;DHT22;8064;51.142;4.780;2022-10-31T03:39:19;12.90;99.90
15930;DHT22;8064;51.142;4.780;2022-10-31T03:41:50;12.90;99.90
15930;DHT22;8064;51.142;4.780;2022-10-31T03:44:19;12.90;99.90
15930;DHT22;8064;51.142;4.780;2022-10-31T03:46:45;12.90;99.90
15930;DHT22;8064;51.142;4.780;2022-10-31T03:49:12;12.90;99.90
15930;DHT22;8064;51.142;4.780;2022-10-31T03:54:42;12.90;99.90
15930;DHT22;8064;51.142;4.780;2022-10-31T03:59:53;13.00;99.90
15930;DHT22;8064;51.142;4.780;2022-10-31T04:02:23;12.90;99.90
15930;DHT22;8064;51.142;4.780;2022-10-31T04:04:51;12.90;99.90
15930;DHT22;8064;51.142;4.780;2022-10-31T04:07:18;12.90;99.90
15930;DHT22;8064;51.142;4.780;2022-10-31T04:09:46;13.00;99.90
15930;DHT22;8064;51.142;4.780;2022-10-31T04:12:14;13.00;99.90
15930;DHT22;8064;51.142;4.780;2022-10-31T04:14:43;13.00;99.90
15930;DHT22;8064;51.142;4.780;2022-10-31T04:17:12;13.00;99.90
15930;DHT22;8064;51.142;4.780;2022-10-31T04:19:39;13.00;99.90
15930;DHT22;8064;51.142;4.780;2022-10-31T04:22:05;13.00;99.90
15930;DHT22;8064;51.142;4.780;2022-10-31T04:24:31;13.00;99.90
15930;DHT22;8064;51.142;4.780;2022-10-31T04:26:57;13.00;99.90
15930;DHT22;8064;51.142;4.780;2022-10-31T04:29:23;12.90;99.90
15930;DHT22;8064;51.142;4.780;2022-10-31T04:31:49;12.90;99.90
15930;DHT22;8064;51.142;4.780;2022-10-31T04:34:15;12.80;99.90
15930;DHT22;8064;51.142;4.780;2022-10-31T04:36:40;12.80;99.90
15930;DHT22;8064;51.142;4.780;2022-10-31T04:39:06;12.80;99.90
15930;DHT22;8064;51.142;4.780;2022-10-31T04:41:32;12.80;99.90
15930;DHT22;8064;51.142;4.780;2022-10-31T04:43:57;12.80;99.90
15930;DHT22;8064;51.142;4.780;2022-10-31T04:46:23;12.80;99.90
15930;DHT22;8064;51.142;4.780;2022-10-31T04:48:49;12.80;99.90
15930;DHT22;8064;51.142;4.780;2022-10-31T04:51:14;12.80;99.90
15930;DHT22;8064;51.142;4.780;2022-10-31T04:53:40;12.70;99.90
15930;DHT22;8064;51.142;4.780;2022-10-31T04:56:06;12.70;99.90
15930;DHT22;8064;51.142;4.780;2022-10-31T04:58:32;12.70;99.90
15930;DHT22;8064;51.142;4.780;2022-10-31T05:00:57;12.70;99.90
15930;DHT22;8064;51.142;4.780;2022-10-31T05:03:23;12.70;99.90
15930;DHT22;8064;51.142;4.780;2022-10-31T05:05:49;12.80;99.90
15930;DHT22;8064;51.142;4.780;2022-10-31T05:08:15;12.80;99.90
15930;DHT22;8064;51.142;4.780;2022-10-31T05:10:41;12.80;99.90
15930;DHT22;8064;51.142;4.780;2022-10-31T05:13:07;12.80;99.90
15930;DHT22;8064;51.142;4.780;2022-10-31T05:15:33;12.80;99.90
15930;DHT22;8064;51.142;4.780;2022-10-31T05:17:59;12.80;99.90
15930;DHT22;8064;51.142;4.780;2022-10-31T05:20:27;12.80;99.90
15930;DHT22;8064;51.142;4.780;2022-10-31T05:22:55;12.80;99.90
15930;DHT22;8064;51.142;4.780;2022-10-31T05:25:22;12.80;99.90
15930;DHT22;8064;51.142;4.780;2022-10-31T05:27:50;12.80;99.90
15930;DHT22;8064;51.142;4.780;2022-10-31T05:30:21;12.80;99.90
15930;DHT22;8064;51.142;4.780;2022-10-31T05:32:49;12.80;99.90
15930;DHT22;8064;51.142;4.780;2022-10-31T05:35:28;12.80;99.90
15930;DHT22;8064;51.142;4.780;2022-10-31T05:37:54;12.70;99.90
15930;DHT22;8064;51.142;4.780;2022-10-31T05:40:21;12.80;99.90
15930;DHT22;8064;51.142;4.780;2022-10-31T05:42:50;12.80;99.90
15930;DHT22;8064;51.142;4.780;2022-10-31T05:45:17;12.80;99.90
15930;DHT22;8064;51.142;4.780;2022-10-31T05:47:56;12.90;99.90
15930;DHT22;8064;51.142;4.780;2022-10-31T05:50:22;12.90;99.90
15930;DHT22;8064;51.142;4.780;2022-10-31T05:52:58;12.90;99.90
15930;DHT22;8064;51.142;4.780;2022-10-31T05:55:24;12.90;99.90
15930;DHT22;8064;51.142;4.780;2022-10-31T05:57:51;13.00;99.90
15930;DHT22;8064;51.142;4.780;2022-10-31T06:00:18;13.00;99.90
15930;DHT22;8064;51.142;4.780;2022-10-31T06:02:44;13.00;99.90
15930;DHT22;8064;51.142;4.780;2022-10-31T06:05:09;12.90;99.90
15930;DHT22;8064;51.142;4.780;2022-10-31T06:07:35;12.90;99.90
15930;DHT22;8064;51.142;4.780;2022-10-31T06:10:03;13.00;99.90
15930;DHT22;8064;51.142;4.780;2022-10-31T06:12:29;13.00;99.90
15930;DHT22;8064;51.142;4.780;2022-10-31T06:14:55;13.00;99.90
15930;DHT22;8064;51.142;4.780;2022-10-31T06:17:21;12.90;99.90
15930;DHT22;8064;51.142;4.780;2022-10-31T06:19:46;12.90;99.90
15930;DHT22;8064;51.142;4.780;2022-10-31T06:22:12;12.90;99.90
15930;DHT22;8064;51.142;4.780;2022-10-31T06:24:39;12.90;99.90
15930;DHT22;8064;51.142;4.780;2022-10-31T06:27:05;12.90;99.90
15930;DHT22;8064;51.142;4.780;2022-10-31T06:29:31;12.90;99.90
15930;DHT22;8064;51.142;4.780;2022-10-31T06:31:57;12.90;99.90
15930;DHT22;8064;51.142;4.780;2022-10-31T06:34:23;13.00;99.90
15930;DHT22;8064;51.142;4.780;2022-10-31T06:36:49;12.90;99.90
15930;DHT22;8064;51.142;4.780;2022-10-31T06:39:15;13.00;99.90
15930;DHT22;8064;51.142;4.780;2022-10-31T06:41:41;13.00;99.90
15930;DHT22;8064;51.142;4.780;2022-10-31T06:44:07;13.00;99.90
15930;DHT22;8064;51.142;4.780;2022-10-31T06:46:33;13.00;99.90
15930;DHT22;8064;51.142;4.780;2022-10-31T06:48:59;13.10;99.90
15930;DHT22;8064;51.142;4.780;2022-10-31T06:51:24;13.10;99.90
15930;DHT22;8064;51.142;4.780;2022-10-31T06:53:50;13.10;99.90
15930;DHT22;8064;51.142;4.780;2022-10-31T06:56:16;13.20;99.90
15930;DHT22;8064;51.142;4.780;2022-10-31T06:58:42;13.10;99.90
15930;DHT22;8064;51.142;4.780;2022-10-31T07:01:08;13.20;99.90
15930;DHT22;8064;51.142;4.780;2022-10-31T07:03:33;13.20;99.90
15930;DHT22;8064;51.142;4.780;2022-10-31T07:05:59;13.20;99.90
15930;DHT22;8064;51.142;4.780;2022-10-31T07:08:25;13.20;99.90
15930;DHT22;8064;51.142;4.780;2022-10-31T07:10:55;13.20;99.90
15930;DHT22;8064;51.142;4.780;2022-10-31T07:13:22;13.30;99.90
15930;DHT22;8064;51.142;4.780;2022-10-31T07:15:53;13.30;99.90
15930;DHT22;8064;51.142;4.780;2022-10-31T07:18:20;13.30;99.90
15930;DHT22;8064;51.142;4.780;2022-10-31T07:20:46;13.40;99.90
15930;DHT22;8064;51.142;4.780;2022-10-31T07:23:12;13.30;99.90
15930;DHT22;8064;51.142;4.780;2022-10-31T07:25:39;13.40;99.90
15930;DHT22;8064;51.142;4.780;2022-10-31T07:28:05;13.40;99.90
15930;DHT22;8064;51.142;4.780;2022-10-31T07:30:31;13.50;99.90
15930;DHT22;8064;51.142;4.780;2022-10-31T07:32:57;13.50;99.90
15930;DHT22;8064;51.142;4.780;2022-10-31T07:35:25;13.50;99.90
15930;DHT22;8064;51.142;4.780;2022-10-31T07:37:51;13.60;99.90
15930;DHT22;8064;51.142;4.780;2022-10-31T07:40:18;13.60;99.90
15930;DHT22;8064;51.142;4.780;2022-10-31T07:42:46;13.60;99.90
15930;DHT22;8064;51.142;4.780;2022-10-31T07:45:15;13.60;99.90
15930;DHT22;8064;51.142;4.780;2022-10-31T07:47:45;13.70;99.90
15930;DHT22;8064;51.142;4.780;2022-10-31T07:50:14;13.70;99.90
15930;DHT22;8064;51.142;4.780;2022-10-31T07:52:40;13.70;99.90
15930;DHT22;8064;51.142;4.780;2022-10-31T07:55:06;13.70;99.90
15930;DHT22;8064;51.142;4.780;2022-10-31T07:57:32;13.80;99.90
15930;DHT22;8064;51.142;4.780;2022-10-31T07:59:58;13.80;99.90
15930;DHT22;8064;51.142;4.780;2022-10-31T08:02:24;13.80;99.90
15930;DHT22;8064;51.142;4.780;2022-10-31T08:04:50;13.90;99.90
15930;DHT22;8064;51.142;4.780;2022-10-31T08:07:16;13.90;99.90
15930;DHT22;8064;51.142;4.780;2022-10-31T08:09:42;14.00;99.90
15930;DHT22;8064;51.142;4.780;2022-10-31T08:12:08;14.00;99.90
15930;DHT22;8064;51.142;4.780;2022-10-31T08:14:34;14.10;99.90
15930;DHT22;8064;51.142;4.780;2022-10-31T08:16:59;14.10;99.90
15930;DHT22;8064;51.142;4.780;2022-10-31T08:19:25;14.20;99.90
15930;DHT22;8064;51.142;4.780;2022-10-31T08:21:52;14.20;99.90
15930;DHT22;8064;51.142;4.780;2022-10-31T08:24:18;14.30;99.90
15930;DHT22;8064;51.142;4.780;2022-10-31T08:26:44;14.30;99.90
15930;DHT22;8064;51.142;4.780;2022-10-31T08:29:10;14.30;99.90
15930;DHT22;8064;51.142;4.780;2022-10-31T08:31:36;14.40;99.90
15930;DHT22;8064;51.142;4.780;2022-10-31T08:34:04;14.40;99.90
15930;DHT22;8064;51.142;4.780;2022-10-31T08:36:30;14.40;99.90
15930;DHT22;8064;51.142;4.780;2022-10-31T08:38:56;14.50;99.90
15930;DHT22;8064;51.142;4.780;2022-10-31T08:41:22;14.50;99.90
15930;DHT22;8064;51.142;4.780;2022-10-31T08:43:48;14.60;99.90
15930;DHT22;8064;51.142;4.780;2022-10-31T08:46:13;14.70;99.90
15930;DHT22;8064;51.142;4.780;2022-10-31T08:48:39;14.80;99.90
15930;DHT22;8064;51.142;4.780;2022-10-31T08:51:05;14.80;99.90
15930;DHT22;8064;51.142;4.780;2022-10-31T08:53:31;14.90;99.90
15930;DHT22;8064;51.142;4.780;2022-10-31T08:55:57;15.00;99.90
15930;DHT22;8064;51.142;4.780;2022-10-31T08:58:24;15.00;99.90
15930;DHT22;8064;51.142;4.780;2022-10-31T09:00:52;15.10;99.90
15930;DHT22;8064;51.142;4.780;2022-10-31T09:03:24;15.10;99.90
15930;DHT22;8064;51.142;4.780;2022-10-31T09:05:53;15.10;99.90
15930;DHT22;8064;51.142;4.780;2022-10-31T09:08:19;15.10;99.90
15930;DHT22;8064;51.142;4.780;2022-10-31T09:11:02;15.20;99.90
15930;DHT22;8064;51.142;4.780;2022-10-31T09:13:30;15.20;99.90
15930;DHT22;8064;51.142;4.780;2022-10-31T09:15:56;15.20;99.90
15930;DHT22;8064;51.142;4.780;2022-10-31T09:18:25;15.30;99.90
15930;DHT22;8064;51.142;4.780;2022-10-31T09:20:53;15.30;99.90
15930;DHT22;8064;51.142;4.780;2022-10-31T09:23:22;15.30;99.90
15930;DHT22;8064;51.142;4.780;2022-10-31T09:25:49;15.40;99.90
15930;DHT22;8064;51.142;4.780;2022-10-31T09:28:17;15.40;99.90
15930;DHT22;8064;51.142;4.780;2022-10-31T09:30:49;15.40;99.90
15930;DHT22;8064;51.142;4.780;2022-10-31T09:33:16;15.40;99.90
15930;DHT22;8064;51.142;4.780;2022-10-31T09:35:42;15.40;99.90
15930;DHT22;8064;51.142;4.780;2022-10-31T09:38:13;15.50;99.90
15930;DHT22;8064;51.142;4.780;2022-10-31T09:40:44;15.50;99.90
15930;DHT22;8064;51.142;4.780;2022-10-31T09:45:53;15.60;99.90
15930;DHT22;8064;51.142;4.780;2022-10-31T09:48:35;15.70;99.90
15930;DHT22;8064;51.142;4.780;2022-10-31T09:51:07;15.70;99.90
15930;DHT22;8064;51.142;4.780;2022-10-31T09:53:39;15.70;99.90
15930;DHT22;8064;51.142;4.780;2022-10-31T09:56:12;15.80;99.90
15930;DHT22;8064;51.142;4.780;2022-10-31T09:58:47;15.80;99.90
15930;DHT22;8064;51.142;4.780;2022-10-31T10:04:29;15.80;99.90
15930;DHT22;8064;51.142;4.780;2022-10-31T10:06:52;15.80;99.90
15930;DHT22;8064;51.142;4.780;2022-10-31T10:09:24;15.90;99.90
15930;DHT22;8064;51.142;4.780;2022-10-31T10:12:06;15.90;99.90
15930;DHT22;8064;51.142;4.780;2022-10-31T10:22:52;16.10;99.90
15930;DHT22;8064;51.142;4.780;2022-10-31T10:25:20;16.60;99.90
15930;DHT22;8064;51.142;4.780;2022-10-31T10:30:50;17.50;99.90
15930;DHT22;8064;51.142;4.780;2022-10-31T10:33:24;17.50;99.90
15930;DHT22;8064;51.142;4.780;2022-10-31T10:36:16;17.70;99.90
15930;DHT22;8064;51.142;4.780;2022-10-31T10:38:53;17.80;99.90
15930;DHT22;8064;51.142;4.780;2022-10-31T10:41:23;17.70;99.90
15930;DHT22;8064;51.142;4.780;2022-10-31T10:43:50;17.60;99.90
15930;DHT22;8064;51.142;4.780;2022-10-31T10:46:48;17.60;99.90
15930;DHT22;8064;51.142;4.780;2022-10-31T10:49:51;17.50;99.90
15930;DHT22;8064;51.142;4.780;2022-10-31T10:55:32;17.30;99.90
15930;DHT22;8064;51.142;4.780;2022-10-31T10:58:11;17.30;99.90
15930;DHT22;8064;51.142;4.780;2022-10-31T11:00:42;17.20;99.90
15930;DHT22;8064;51.142;4.780;2022-10-31T11:03:10;17.20;99.90
15930;DHT22;8064;51.142;4.780;2022-10-31T11:05:40;17.20;99.90
15930;DHT22;8064;51.142;4.780;2022-10-31T11:08:08;17.30;99.90
15930;DHT22;8064;51.142;4.780;2022-10-31T11:10:34;17.30;99.90
15930;DHT22;8064;51.142;4.780;2022-10-31T11:13:21;17.40;99.90
15930;DHT22;8064;51.142;4.780;2022-10-31T11:16:06;17.40;99.90
15930;DHT22;8064;51.142;4.780;2022-10-31T11:18:42;17.50;99.90
15930;DHT22;8064;51.142;4.780;2022-10-31T11:21:21;17.80;99.90
15930;DHT22;8064;51.142;4.780;2022-10-31T11:23:47;18.10;99.90
15930;DHT22;8064;51.142;4.780;2022-10-31T11:26:20;18.20;99.90
15930;DHT22;8064;51.142;4.780;2022-10-31T11:28:56;18.40;99.90
15930;DHT22;8064;51.142;4.780;2022-10-31T11:31:23;18.60;99.90
15930;DHT22;8064;51.142;4.780;2022-10-31T11:33:59;19.00;99.90
15930;DHT22;8064;51.142;4.780;2022-10-31T11:36:29;19.20;99.90
15930;DHT22;8064;51.142;4.780;2022-10-31T11:38:55;19.30;99.90
15930;DHT22;8064;51.142;4.780;2022-10-31T11:41:29;19.30;99.90
15930;DHT22;8064;51.142;4.780;2022-10-31T11:44:05;19.30;99.90
15930;DHT22;8064;51.142;4.780;2022-10-31T11:46:42;19.30;99.90
15930;DHT22;8064;51.142;4.780;2022-10-31T11:51:55;19.50;99.90
15930;DHT22;8064;51.142;4.780;2022-10-31T11:54:31;19.60;99.90
15930;DHT22;8064;51.142;4.780;2022-10-31T11:56:58;19.80;99.90
15930;DHT22;8064;51.142;4.780;2022-10-31T11:59:31;20.10;99.90
15930;DHT22;8064;51.142;4.780;2022-10-31T12:02:00;20.20;99.90
15930;DHT22;8064;51.142;4.780;2022-10-31T12:04:39;20.20;99.90
15930;DHT22;8064;51.142;4.780;2022-10-31T12:07:07;20.20;99.90
15930;DHT22;8064;51.142;4.780;2022-10-31T12:09:35;20.20;99.90
15930;DHT22;8064;51.142;4.780;2022-10-31T12:15:05;20.10;99.90
15930;DHT22;8064;51.142;4.780;2022-10-31T12:17:49;20.10;99.90
15930;DHT22;8064;51.142;4.780;2022-10-31T12:23:33;20.10;99.90
15930;DHT22;8064;51.142;4.780;2022-10-31T13:04:55;20.20;99.90
15930;DHT22;8064;51.142;4.780;2022-10-31T13:07:43;20.20;99.90
15930;DHT22;8064;51.142;4.780;2022-10-31T13:10:26;20.20;99.90
15930;DHT22;8064;51.142;4.780;2022-10-31T13:13:11;20.20;99.90
15930;DHT22;8064;51.142;4.780;2022-10-31T13:16:00;20.10;99.90
15930;DHT22;8064;51.142;4.780;2022-10-31T13:18:39;20.10;99.90
15930;DHT22;8064;51.142;4.780;2022-10-31T13:21:15;20.00;99.90
15930;DHT22;8064;51.142;4.780;2022-10-31T13:23:44;20.00;99.90
15930;DHT22;8064;51.142;4.780;2022-10-31T13:26:21;20.00;99.90
15930;DHT22;8064;51.142;4.780;2022-10-31T13:31:14;19.90;99.90
15930;DHT22;8064;51.142;4.780;2022-10-31T13:33:46;19.80;99.90
15930;DHT22;8064;51.142;4.780;2022-10-31T13:39:23;19.70;99.90
15930;DHT22;8064;51.142;4.780;2022-10-31T13:44:55;19.70;99.90
15930;DHT22;8064;51.142;4.780;2022-10-31T13:47:32;19.60;99.90
15930;DHT22;8064;51.142;4.780;2022-10-31T13:50:21;19.60;99.90
15930;DHT22;8064;51.142;4.780;2022-10-31T13:52:47;19.60;99.90
15930;DHT22;8064;51.142;4.780;2022-10-31T13:58:23;19.70;99.90
15930;DHT22;8064;51.142;4.780;2022-10-31T14:01:19;19.80;99.90
15930;DHT22;8064;51.142;4.780;2022-10-31T14:03:55;19.90;99.90
15930;DHT22;8064;51.142;4.780;2022-10-31T14:06:23;19.90;99.90
15930;DHT22;8064;51.142;4.780;2022-10-31T14:08:59;19.90;99.90
15930;DHT22;8064;51.142;4.780;2022-10-31T14:11:26;19.90;99.90
15930;DHT22;8064;51.142;4.780;2022-10-31T14:13:54;19.80;99.90
15930;DHT22;8064;51.142;4.780;2022-10-31T14:16:29;19.80;99.90
15930;DHT22;8064;51.142;4.780;2022-10-31T14:19:12;19.80;99.90
15930;DHT22;8064;51.142;4.780;2022-10-31T14:21:41;19.80;99.90
15930;DHT22;8064;51.142;4.780;2022-10-31T14:29:47;19.70;99.90
15930;DHT22;8064;51.142;4.780;2022-10-31T14:32:23;19.60;99.90
15930;DHT22;8064;51.142;4.780;2022-10-31T14:50:59;19.40;99.90
15930;DHT22;8064;51.142;4.780;2022-10-31T14:53:29;19.40;99.90
15930;DHT22;8064;51.142;4.780;2022-10-31T14:55:56;19.40;99.90
15930;DHT22;8064;51.142;4.780;2022-10-31T15:00:56;19.40;99.90
15930;DHT22;8064;51.142;4.780;2022-10-31T15:03:29;19.60;99.90
15930;DHT22;8064;51.142;4.780;2022-10-31T15:06:00;19.90;99.90
15930;DHT22;8064;51.142;4.780;2022-10-31T15:08:39;20.10;99.90
15930;DHT22;8064;51.142;4.780;2022-10-31T15:11:16;20.20;99.60
15930;DHT22;8064;51.142;4.780;2022-10-31T15:16:15;20.00;99.60
15930;DHT22;8064;51.142;4.780;2022-10-31T15:18:48;19.80;99.70
15930;DHT22;8064;51.142;4.780;2022-10-31T15:21:16;19.70;99.90
15930;DHT22;8064;51.142;4.780;2022-10-31T15:23:42;19.50;99.90
15930;DHT22;8064;51.142;4.780;2022-10-31T15:26:17;19.40;99.90
15930;DHT22;8064;51.142;4.780;2022-10-31T15:28:44;19.20;99.90
15930;DHT22;8064;51.142;4.780;2022-10-31T15:31:16;19.10;99.90
15930;DHT22;8064;51.142;4.780;2022-10-31T15:33:44;19.00;99.90
15930;DHT22;8064;51.142;4.780;2022-10-31T15:36:21;18.90;99.90
15930;DHT22;8064;51.142;4.780;2022-10-31T15:38:49;18.80;99.90
15930;DHT22;8064;51.142;4.780;2022-10-31T15:44:28;18.60;99.90
15930;DHT22;8064;51.142;4.780;2022-10-31T15:46:58;18.50;99.90
15930;DHT22;8064;51.142;4.780;2022-10-31T15:49:38;18.40;99.90
15930;DHT22;8064;51.142;4.780;2022-10-31T15:52:11;18.30;99.90
15930;DHT22;8064;51.142;4.780;2022-10-31T15:54:51;18.20;99.90
15930;DHT22;8064;51.142;4.780;2022-10-31T15:57:17;18.20;99.90
15930;DHT22;8064;51.142;4.780;2022-10-31T15:59:46;18.10;99.90
15930;DHT22;8064;51.142;4.780;2022-10-31T16:02:14;18.00;99.90
15930;DHT22;8064;51.142;4.780;2022-10-31T16:05:17;18.00;99.90
15930;DHT22;8064;51.142;4.780;2022-10-31T16:07:50;17.90;99.90
15930;DHT22;8064;51.142;4.780;2022-10-31T16:10:24;17.80;99.90
15930;DHT22;8064;51.142;4.780;2022-10-31T16:12:51;17.80;99.90
15930;DHT22;8064;51.142;4.780;2022-10-31T16:15:19;17.70;99.90
15930;DHT22;8064;51.142;4.780;2022-10-31T16:17:50;17.70;99.90
15930;DHT22;8064;51.142;4.780;2022-10-31T16:20:27;17.60;99.90
15930;DHT22;8064;51.142;4.780;2022-10-31T16:22:55;17.60;99.90
15930;DHT22;8064;51.142;4.780;2022-10-31T16:25:36;17.50;99.90
15930;DHT22;8064;51.142;4.780;2022-10-31T16:28:23;17.50;99.90
15930;DHT22;8064;51.142;4.780;2022-10-31T16:30:52;17.40;99.90
15930;DHT22;8064;51.142;4.780;2022-10-31T16:38:56;17.20;99.90
15930;DHT22;8064;51.142;4.780;2022-10-31T16:41:23;17.20;99.90
15930;DHT22;8064;51.142;4.780;2022-10-31T16:43:50;17.10;99.90
15930;DHT22;8064;51.142;4.780;2022-10-31T16:46:23;17.10;99.90
15930;DHT22;8064;51.142;4.780;2022-10-31T16:48:49;17.00;99.90
15930;DHT22;8064;51.142;4.780;2022-10-31T16:51:14;17.00;99.90
15930;DHT22;8064;51.142;4.780;2022-10-31T16:53:40;17.00;99.90
15930;DHT22;8064;51.142;4.780;2022-10-31T16:56:29;17.00;99.90
15930;DHT22;8064;51.142;4.780;2022-10-31T16:58:56;17.00;99.90
15930;DHT22;8064;51.142;4.780;2022-10-31T17:01:22;16.90;99.90
15930;DHT22;8064;51.142;4.780;2022-10-31T17:03:47;16.90;99.90
15930;DHT22;8064;51.142;4.780;2022-10-31T17:06:13;16.80;99.90
15930;DHT22;8064;51.142;4.780;2022-10-31T17:08:39;16.80;99.90
15930;DHT22;8064;51.142;4.780;2022-10-31T17:11:05;16.80;99.90
15930;DHT22;8064;51.142;4.780;2022-10-31T17:13:34;16.80;99.90
15930;DHT22;8064;51.142;4.780;2022-10-31T17:16:01;16.80;99.90
15930;DHT22;8064;51.142;4.780;2022-10-31T17:18:27;16.70;99.90
15930;DHT22;8064;51.142;4.780;2022-10-31T17:21:01;16.70;99.90
15930;DHT22;8064;51.142;4.780;2022-10-31T17:23:28;16.70;99.90
15930;DHT22;8064;51.142;4.780;2022-10-31T17:25:54;16.60;99.90
15930;DHT22;8064;51.142;4.780;2022-10-31T17:28:20;16.60;99.90
15930;DHT22;8064;51.142;4.780;2022-10-31T17:30:46;16.60;99.90
15930;DHT22;8064;51.142;4.780;2022-10-31T17:33:13;16.60;99.90
15930;DHT22;8064;51.142;4.780;2022-10-31T17:35:40;16.60;99.90
15930;DHT22;8064;51.142;4.780;2022-10-31T17:38:06;16.60;99.90
15930;DHT22;8064;51.142;4.780;2022-10-31T17:40:31;16.60;99.90
15930;DHT22;8064;51.142;4.780;2022-10-31T17:42:57;16.60;99.90
15930;DHT22;8064;51.142;4.780;2022-10-31T17:45:25;16.50;99.90
15930;DHT22;8064;51.142;4.780;2022-10-31T17:48:05;16.50;99.90
15930;DHT22;8064;51.142;4.780;2022-10-31T17:50:30;16.50;99.90
15930;DHT22;8064;51.142;4.780;2022-10-31T17:52:57;16.50;99.90
15930;DHT22;8064;51.142;4.780;2022-10-31T17:55:23;16.50;99.90
15930;DHT22;8064;51.142;4.780;2022-10-31T17:57:48;16.50;99.90
15930;DHT22;8064;51.142;4.780;2022-10-31T18:00:17;16.50;99.90
15930;DHT22;8064;51.142;4.780;2022-10-31T18:02:43;16.50;99.90
15930;DHT22;8064;51.142;4.780;2022-10-31T18:05:09;16.50;99.90
15930;DHT22;8064;51.142;4.780;2022-10-31T18:07:35;16.40;99.90
15930;DHT22;8064;51.142;4.780;2022-10-31T18:10:01;16.40;99.90
15930;DHT22;8064;51.142;4.780;2022-10-31T18:12:27;16.40;99.90
15930;DHT22;8064;51.142;4.780;2022-10-31T18:14:53;16.40;99.90
15930;DHT22;8064;51.142;4.780;2022-10-31T18:17:20;16.30;99.90
15930;DHT22;8064;51.142;4.780;2022-10-31T18:19:45;16.30;99.90
15930;DHT22;8064;51.142;4.780;2022-10-31T18:22:12;16.30;99.90